createdAt,value
2023-05-02T00:00:01.644Z,9.81
2023-05-02T00:01:46.657Z,9.80
2023-05-02T00:03:08.478Z,9.80
2023-05-02T00:04:30.648Z,9.79
2023-05-02T00:05:52.300Z,9.79
2023-05-02T00:07:13.997Z,9.78
2023-05-02T00:08:36.173Z,9.78
2023-05-02T00:10:00.713Z,9.77
2023-05-02T00:11:34.649Z,9.76
2023-05-02T00:12:56.210Z,9.76
2023-05-02T00:14:17.935Z,9.75
2023-05-02T00:15:40.120Z,9.75
2023-05-02T00:17:13.724Z,9.75
2023-05-02T00:18:35.421Z,9.75
2023-05-02T00:19:57.468Z,9.75
2023-05-02T00:21:22.339Z,9.75
2023-05-02T00:22:55.740Z,9.75
2023-05-02T00:24:19.724Z,9.74
2023-05-02T00:25:43.909Z,9.75
2023-05-02T00:27:06.184Z,9.75
2023-05-02T00:28:28.450Z,9.76
2023-05-02T00:29:59.636Z,9.76
2023-05-02T00:31:40.372Z,9.77
2023-05-02T00:33:02.685Z,9.77
2023-05-02T00:34:26.657Z,9.78
2023-05-02T00:35:55.789Z,9.79
2023-05-02T00:37:17.513Z,9.79
2023-05-02T00:38:39.405Z,9.79
2023-05-02T00:40:13.059Z,9.79
2023-05-02T00:41:37.245Z,9.80
2023-05-02T00:43:20.047Z,9.79
2023-05-02T00:44:45.126Z,9.80
2023-05-02T00:46:09.064Z,9.79
2023-05-02T00:47:31.537Z,9.79
2023-05-02T00:48:53.286Z,9.78
2023-05-02T00:50:15.110Z,9.78
2023-05-02T00:51:44.191Z,9.78
2023-05-02T00:53:12.964Z,9.77
2023-05-02T00:54:34.902Z,9.76
2023-05-02T00:55:56.976Z,9.75
2023-05-02T00:57:26.801Z,9.74
2023-05-02T00:58:48.678Z,9.72
2023-05-02T01:00:12.721Z,9.71
2023-05-02T01:01:42.115Z,9.70
2023-05-02T01:03:06.561Z,9.69
2023-05-02T01:04:28.079Z,9.67
2023-05-02T01:05:52.383Z,9.66
2023-05-02T01:07:14.136Z,9.65
2023-05-02T01:08:38.109Z,9.63
2023-05-02T01:10:00.077Z,9.62
2023-05-02T01:11:26.368Z,9.60
2023-05-02T01:12:48.352Z,9.58
2023-05-02T01:14:12.255Z,9.56
2023-05-02T01:15:37.527Z,9.55
2023-05-02T01:17:06.852Z,9.53
2023-05-02T01:18:28.422Z,9.51
2023-05-02T01:19:52.695Z,9.49
2023-05-02T01:21:22.297Z,9.47
2023-05-02T01:22:48.841Z,9.44
2023-05-02T01:24:10.479Z,9.42
2023-05-02T01:25:46.739Z,9.39
2023-05-02T01:27:10.780Z,9.37
2023-05-02T01:28:32.736Z,9.35
2023-05-02T01:29:54.727Z,9.33
2023-05-02T01:31:26.247Z,9.31
2023-05-02T01:32:48.450Z,9.29
2023-05-02T01:34:12.419Z,9.27
2023-05-02T01:35:34.355Z,9.25
2023-05-02T01:36:56.643Z,9.24
2023-05-02T01:38:21.057Z,9.22
2023-05-02T01:39:50.304Z,9.21
2023-05-02T01:41:16.288Z,9.20
2023-05-02T01:42:57.219Z,9.18
2023-05-02T01:44:18.773Z,9.17
2023-05-02T01:45:40.901Z,9.16
2023-05-02T01:47:03.486Z,9.15
2023-05-02T01:48:28.357Z,9.13
2023-05-02T01:50:04.273Z,9.12
2023-05-02T01:51:40.640Z,9.11
2023-05-02T01:53:14.687Z,9.10
2023-05-02T01:54:38.924Z,9.08
2023-05-02T01:56:12.203Z,9.07
2023-05-02T01:57:47.866Z,9.06
2023-05-02T01:59:09.821Z,9.04
2023-05-02T02:00:34.491Z,9.03
2023-05-02T02:02:04.027Z,9.02
2023-05-02T02:03:25.992Z,9.00
2023-05-02T02:04:48.990Z,8.98
2023-05-02T02:06:17.519Z,8.97
2023-05-02T02:07:39.513Z,8.96
2023-05-02T02:09:04.230Z,8.94
2023-05-02T02:10:34.047Z,8.93
2023-05-02T02:11:57.935Z,8.92
2023-05-02T02:13:21.513Z,8.90
2023-05-02T02:14:43.397Z,8.89
2023-05-02T02:16:05.110Z,8.88
2023-05-02T02:17:26.728Z,8.86
2023-05-02T02:18:48.880Z,8.85
2023-05-02T02:20:18.268Z,8.85
2023-05-02T02:21:42.503Z,8.84
2023-05-02T02:23:15.978Z,8.82
2023-05-02T02:24:37.940Z,8.82
2023-05-02T02:26:06.723Z,8.80
2023-05-02T02:27:30.747Z,8.80
2023-05-02T02:28:52.578Z,8.79
2023-05-02T02:30:16.472Z,8.78
2023-05-02T02:31:40.695Z,8.77
2023-05-02T02:33:04.573Z,8.76
2023-05-02T02:34:27.325Z,8.75
2023-05-02T02:35:52.801Z,8.74
2023-05-02T02:37:16.732Z,8.74
2023-05-02T02:38:42.361Z,8.73
2023-05-02T02:40:06.607Z,8.72
2023-05-02T02:41:28.457Z,8.71
2023-05-02T02:42:53.384Z,8.70
2023-05-02T02:44:28.853Z,8.70
2023-05-02T02:45:50.937Z,8.69
2023-05-02T02:47:12.258Z,8.69
2023-05-02T02:48:36.706Z,8.68
2023-05-02T02:50:00.822Z,8.68
2023-05-02T02:51:22.401Z,8.67
2023-05-02T02:52:43.926Z,8.67
2023-05-02T02:54:19.103Z,8.90
2023-05-02T02:55:50.564Z,10.19
2023-05-02T02:57:13.024Z,11.41
2023-05-02T02:58:34.707Z,12.11
2023-05-02T02:59:58.773Z,12.05
2023-05-02T03:01:23.280Z,11.70
2023-05-02T03:02:48.185Z,11.31
2023-05-02T03:04:09.825Z,10.99
2023-05-02T03:05:31.898Z,10.72
2023-05-02T03:06:58.253Z,10.50
2023-05-02T03:08:20.100Z,10.34
2023-05-02T03:09:42.093Z,10.18
2023-05-02T03:11:06.521Z,10.05
2023-05-02T03:12:40.127Z,9.94
2023-05-02T03:14:04.168Z,9.83
2023-05-02T03:15:28.237Z,9.73
2023-05-02T03:16:55.249Z,9.65
2023-05-02T03:18:19.420Z,9.57
2023-05-02T03:19:41.399Z,9.50
2023-05-02T03:21:05.549Z,9.43
2023-05-02T03:22:27.439Z,9.37
2023-05-02T03:23:49.591Z,9.33
2023-05-02T03:25:25.859Z,9.28
2023-05-02T03:26:59.922Z,9.24
2023-05-02T03:28:24.137Z,9.21
2023-05-02T03:29:46.722Z,9.17
2023-05-02T03:31:08.902Z,9.14
2023-05-02T03:32:42.454Z,9.12
2023-05-02T03:34:07.697Z,9.20
2023-05-02T03:35:31.656Z,10.01
2023-05-02T03:36:53.513Z,11.20
2023-05-02T03:38:15.200Z,12.29
2023-05-02T03:39:38.325Z,12.58
2023-05-02T03:41:04.625Z,12.33
2023-05-02T03:42:41.080Z,11.89
2023-05-02T03:44:08.370Z,11.53
2023-05-02T03:45:41.916Z,11.20
2023-05-02T03:47:15.282Z,10.98
2023-05-02T03:48:49.522Z,10.78
2023-05-02T03:50:30.573Z,10.61
2023-05-02T03:51:52.793Z,10.48
2023-05-02T03:53:16.246Z,10.38
2023-05-02T03:54:43.792Z,10.29
2023-05-02T03:56:05.763Z,10.21
2023-05-02T03:57:31.484Z,10.13
2023-05-02T03:58:57.942Z,10.07
2023-05-02T04:00:31.630Z,10.01
2023-05-02T04:01:57.885Z,9.97
2023-05-02T04:03:29.820Z,9.92
2023-05-02T04:04:53.450Z,9.88
2023-05-02T04:06:16.540Z,9.85
2023-05-02T04:07:41.323Z,9.82
2023-05-02T04:09:03.375Z,9.80
2023-05-02T04:10:31.855Z,9.78
2023-05-02T04:11:56.228Z,9.76
2023-05-02T04:13:18.030Z,9.75
2023-05-02T04:14:42.250Z,9.95
2023-05-02T04:16:04.770Z,10.89
2023-05-02T04:17:43.379Z,12.22
2023-05-02T04:19:07.682Z,13.13
2023-05-02T04:20:32.534Z,13.09
2023-05-02T04:21:54.302Z,12.76
2023-05-02T04:23:18.049Z,12.40
2023-05-02T04:24:44.751Z,12.08
2023-05-02T04:26:07.093Z,11.83
2023-05-02T04:27:35.372Z,11.63
2023-05-02T04:29:11.219Z,11.45
2023-05-02T04:30:45.331Z,11.32
2023-05-02T04:32:15.552Z,11.19
2023-05-02T04:33:39.907Z,11.10
2023-05-02T04:35:15.405Z,11.02
2023-05-02T04:36:37.892Z,10.96
2023-05-02T04:38:07.608Z,10.89
2023-05-02T04:39:29.461Z,10.84
2023-05-02T04:40:57.586Z,10.79
2023-05-02T04:42:29.124Z,10.74
2023-05-02T04:43:59.580Z,10.70
2023-05-02T04:45:21.094Z,10.68
2023-05-02T04:46:44.884Z,10.65
2023-05-02T04:48:09.600Z,10.66
2023-05-02T04:49:43.362Z,11.20
2023-05-02T04:51:05.422Z,12.53
2023-05-02T04:52:29.399Z,13.67
2023-05-02T04:53:53.407Z,14.02
2023-05-02T04:55:14.898Z,13.80
2023-05-02T04:56:39.391Z,13.45
2023-05-02T04:58:12.882Z,13.11
2023-05-02T04:59:37.868Z,12.80
2023-05-02T05:01:00.757Z,12.59
2023-05-02T05:02:25.845Z,12.43
2023-05-02T05:03:58.081Z,12.30
2023-05-02T05:05:20.339Z,12.21
2023-05-02T05:06:54.671Z,12.13
2023-05-02T05:08:18.928Z,12.06
2023-05-02T05:09:45.608Z,12.01
2023-05-02T05:11:07.147Z,11.97
2023-05-02T05:12:41.090Z,11.92
2023-05-02T05:14:06.136Z,11.88
2023-05-02T05:15:29.853Z,11.86
2023-05-02T05:16:55.572Z,11.84
2023-05-02T05:18:29.396Z,11.84
2023-05-02T05:19:53.348Z,11.85
2023-05-02T05:21:22.218Z,11.86
2023-05-02T05:22:45.002Z,11.88
2023-05-02T05:24:19.253Z,11.91
2023-05-02T05:25:48.954Z,11.94
2023-05-02T05:27:12.252Z,11.99
2023-05-02T05:28:39.304Z,12.04
2023-05-02T05:30:01.664Z,12.10
2023-05-02T05:31:24.438Z,12.17
2023-05-02T05:32:50.126Z,12.23
2023-05-02T05:34:23.088Z,12.30
2023-05-02T05:36:04.002Z,12.38
2023-05-02T05:37:25.567Z,12.45
2023-05-02T05:38:50.870Z,12.52
2023-05-02T05:40:22.051Z,12.58
2023-05-02T05:41:50.853Z,12.64
2023-05-02T05:43:12.445Z,12.71
2023-05-02T05:44:34.419Z,12.76
2023-05-02T05:45:58.461Z,12.82
2023-05-02T05:47:31.264Z,12.88
2023-05-02T05:48:53.431Z,12.95
2023-05-02T05:50:17.410Z,13.02
2023-05-02T05:51:47.576Z,13.09
2023-05-02T05:53:23.858Z,13.19
2023-05-02T05:54:48.487Z,13.26
2023-05-02T05:56:10.172Z,13.33
2023-05-02T05:57:34.245Z,13.41
2023-05-02T05:58:59.255Z,13.47
2023-05-02T06:00:23.346Z,13.53
2023-05-02T06:01:45.564Z,13.59
2023-05-02T06:03:09.775Z,13.65
2023-05-02T06:04:31.926Z,13.72
2023-05-02T06:05:56.288Z,13.78
2023-05-02T06:07:17.577Z,13.84
2023-05-02T06:08:40.368Z,13.88
2023-05-02T06:10:02.342Z,13.93
2023-05-02T06:11:29.252Z,13.99
2023-05-02T06:12:51.807Z,14.04
2023-05-02T06:14:16.740Z,14.09
2023-05-02T06:15:40.156Z,14.14
2023-05-02T06:17:04.437Z,14.21
2023-05-02T06:18:26.332Z,14.26
2023-05-02T06:19:50.908Z,14.32
2023-05-02T06:21:14.610Z,14.37
2023-05-02T06:22:36.707Z,14.43
2023-05-02T06:24:00.807Z,14.47
2023-05-02T06:25:22.512Z,14.51
2023-05-02T06:26:44.644Z,14.56
2023-05-02T06:28:06.959Z,14.61
2023-05-02T06:29:29.074Z,14.64
2023-05-02T06:30:51.046Z,14.67
2023-05-02T06:32:12.742Z,14.70
2023-05-02T06:33:35.408Z,14.72
2023-05-02T06:34:59.685Z,14.75
2023-05-02T06:36:28.464Z,14.77
2023-05-02T06:37:50.592Z,14.79
2023-05-02T06:39:19.767Z,14.81
2023-05-02T06:40:45.280Z,14.83
2023-05-02T06:42:06.812Z,14.87
2023-05-02T06:43:29.260Z,14.89
2023-05-02T06:44:51.407Z,14.91
2023-05-02T06:46:17.464Z,14.93
2023-05-02T06:47:39.300Z,14.96
2023-05-02T06:49:00.879Z,14.98
2023-05-02T06:50:30.129Z,15.02
2023-05-02T06:51:52.198Z,15.06
2023-05-02T06:53:14.206Z,15.09
2023-05-02T06:54:43.876Z,15.14
2023-05-02T06:56:07.664Z,15.20
2023-05-02T06:57:36.878Z,15.27
2023-05-02T06:58:58.477Z,15.33
2023-05-02T07:00:19.960Z,15.38
2023-05-02T07:01:42.335Z,15.41
2023-05-02T07:03:04.337Z,15.46
2023-05-02T07:04:30.010Z,15.50
2023-05-02T07:05:52.151Z,15.55
2023-05-02T07:07:13.660Z,15.61
2023-05-02T07:08:37.873Z,15.65
2023-05-02T07:09:59.957Z,15.72
2023-05-02T07:11:23.512Z,15.78
2023-05-02T07:12:45.580Z,15.85
2023-05-02T07:14:07.271Z,15.91
2023-05-02T07:15:28.997Z,15.97
2023-05-02T07:16:50.961Z,16.02
2023-05-02T07:18:12.602Z,16.07
2023-05-02T07:19:38.855Z,16.11
2023-05-02T07:21:02.825Z,16.18
2023-05-02T07:22:27.001Z,16.22
2023-05-02T07:23:49.772Z,16.25
2023-05-02T07:25:11.204Z,16.30
2023-05-02T07:26:32.638Z,16.33
2023-05-02T07:27:54.461Z,16.34
2023-05-02T07:29:18.183Z,16.36
2023-05-02T07:30:40.254Z,16.37
2023-05-02T07:32:02.281Z,16.39
2023-05-02T07:33:26.000Z,16.40
2023-05-02T07:34:48.411Z,16.42
2023-05-02T07:36:12.671Z,16.43
2023-05-02T07:37:41.953Z,16.42
2023-05-02T07:39:04.037Z,16.40
2023-05-02T07:40:25.792Z,16.37
2023-05-02T07:41:47.778Z,16.35
2023-05-02T07:43:11.336Z,16.35
2023-05-02T07:44:34.981Z,16.35
2023-05-02T07:45:57.170Z,16.37
2023-05-02T07:47:18.606Z,16.41
2023-05-02T07:48:42.093Z,16.47
2023-05-02T07:50:11.391Z,16.52
2023-05-02T07:51:36.348Z,16.57
2023-05-02T07:52:58.111Z,16.60
2023-05-02T07:54:19.357Z,16.63
2023-05-02T07:55:43.943Z,16.67
2023-05-02T07:57:08.703Z,16.68
2023-05-02T07:58:30.318Z,16.68
2023-05-02T07:59:59.846Z,16.67
2023-05-02T08:01:21.873Z,16.65
2023-05-02T08:02:44.426Z,16.63
2023-05-02T08:04:06.443Z,16.61
2023-05-02T08:05:28.092Z,16.59
2023-05-02T08:06:50.333Z,16.59
2023-05-02T08:08:12.310Z,16.59
2023-05-02T08:09:41.467Z,16.59
2023-05-02T08:11:10.719Z,16.61
2023-05-02T08:12:32.485Z,16.61
2023-05-02T08:13:54.407Z,16.62
2023-05-02T08:15:16.119Z,16.63
2023-05-02T08:16:40.408Z,16.64
2023-05-02T08:18:02.054Z,16.67
2023-05-02T08:19:35.148Z,16.69
2023-05-02T08:20:58.641Z,16.68
2023-05-02T08:22:24.815Z,16.68
2023-05-02T08:25:59.980Z,16.66
2023-05-02T08:27:20.051Z,16.66
2023-05-02T08:28:40.507Z,16.67
2023-05-02T08:30:01.304Z,16.69
2023-05-02T08:31:21.303Z,16.71
2023-05-02T08:32:54.105Z,16.73
2023-05-02T08:34:13.995Z,16.74
2023-05-02T08:35:39.801Z,16.74
2023-05-02T08:36:59.849Z,16.72
2023-05-02T08:38:19.729Z,16.70
2023-05-02T08:39:40.177Z,16.68
2023-05-02T08:41:00.622Z,16.67
2023-05-02T08:42:20.808Z,16.67
2023-05-02T08:43:41.385Z,16.67
2023-05-02T08:45:01.442Z,16.68
2023-05-02T08:46:21.450Z,16.68
2023-05-02T08:47:42.338Z,16.68
2023-05-02T08:49:02.792Z,16.70
2023-05-02T08:50:22.696Z,16.71
2023-05-02T08:51:50.958Z,16.73
2023-05-02T08:53:10.975Z,16.75
2023-05-02T08:54:34.061Z,16.77
2023-05-02T08:55:54.782Z,16.78
2023-05-02T08:57:14.904Z,16.77
2023-05-02T08:58:35.357Z,16.75
2023-05-02T08:59:56.022Z,16.72
2023-05-02T09:01:20.585Z,16.68
2023-05-02T09:02:43.649Z,16.62
2023-05-02T09:04:04.192Z,16.55
2023-05-02T09:05:24.788Z,16.49
2023-05-02T09:06:45.012Z,16.42
2023-05-02T09:08:05.291Z,16.34
2023-05-02T09:09:37.123Z,16.26
2023-05-02T09:10:58.067Z,16.19
2023-05-02T09:12:20.310Z,16.13
2023-05-02T09:13:40.589Z,16.07
2023-05-02T09:15:01.114Z,16.01
2023-05-02T09:16:24.848Z,15.96
2023-05-02T09:17:45.466Z,15.89
2023-05-02T09:19:05.669Z,15.83
2023-05-02T09:20:25.934Z,15.75
2023-05-02T09:21:54.210Z,15.66
2023-05-02T09:23:14.595Z,15.65
2023-05-02T09:24:37.467Z,16.17
2023-05-02T09:25:57.551Z,17.20
2023-05-02T09:27:17.669Z,18.36
2023-05-02T09:28:37.961Z,19.17
2023-05-02T09:29:58.282Z,19.15
2023-05-02T09:31:27.011Z,18.78
2023-05-02T09:32:59.300Z,18.21
2023-05-02T09:34:19.315Z,17.86
2023-05-02T09:35:39.480Z,17.56
2023-05-02T09:36:59.719Z,17.34
2023-05-02T09:38:24.951Z,17.16
2023-05-02T09:39:45.178Z,17.00
2023-05-02T09:41:08.101Z,16.86
2023-05-02T09:42:27.988Z,16.74
2023-05-02T09:43:51.165Z,16.63
2023-05-02T09:45:11.196Z,16.55
2023-05-02T09:46:34.035Z,16.47
2023-05-02T09:47:54.664Z,16.40
2023-05-02T09:49:14.613Z,16.33
2023-05-02T09:50:35.406Z,16.29
2023-05-02T09:51:56.012Z,16.25
2023-05-02T09:53:16.258Z,16.23
2023-05-02T09:54:37.254Z,16.21
2023-05-02T09:55:57.073Z,16.20
2023-05-02T09:57:20.225Z,16.18
2023-05-02T09:58:41.061Z,16.17
2023-05-02T10:00:04.271Z,16.17
2023-05-02T10:01:32.762Z,16.16
2023-05-02T10:02:53.323Z,16.14
2023-05-02T10:04:18.001Z,16.12
2023-05-02T10:05:38.463Z,16.11
2023-05-02T10:06:58.884Z,16.14
2023-05-02T10:08:19.059Z,16.17
2023-05-02T10:09:39.608Z,16.19
2023-05-02T10:11:00.270Z,16.22
2023-05-02T10:12:20.486Z,16.24
2023-05-02T10:13:42.087Z,16.26
2023-05-02T10:15:02.384Z,16.29
2023-05-02T10:16:30.334Z,16.29
2023-05-02T10:17:51.323Z,16.29
2023-05-02T10:19:11.583Z,16.28
2023-05-02T10:20:31.998Z,16.27
2023-05-02T10:21:52.641Z,16.26
2023-05-02T10:23:14.711Z,16.24
2023-05-02T10:24:35.214Z,16.22
2023-05-02T10:25:56.043Z,16.20
2023-05-02T10:27:17.291Z,16.19
2023-05-02T10:28:37.737Z,16.18
2023-05-02T10:29:58.314Z,16.18
2023-05-02T10:31:18.275Z,16.19
2023-05-02T10:32:38.704Z,16.20
2023-05-02T10:33:59.076Z,16.21
2023-05-02T10:35:18.760Z,16.23
2023-05-02T10:36:39.110Z,16.25
2023-05-02T10:37:59.273Z,16.28
2023-05-02T10:39:23.639Z,16.31
2023-05-02T10:40:44.125Z,16.36
2023-05-02T10:42:04.897Z,16.41
2023-05-02T10:43:25.159Z,16.44
2023-05-02T10:44:46.110Z,16.49
2023-05-02T10:46:06.604Z,16.52
2023-05-02T10:47:27.198Z,16.54
2023-05-02T10:48:47.896Z,16.56
2023-05-02T10:50:08.063Z,16.56
2023-05-02T10:51:29.021Z,16.56
2023-05-02T10:52:49.771Z,16.56
2023-05-02T10:54:12.982Z,16.57
2023-05-02T10:55:33.201Z,16.58
2023-05-02T10:57:05.304Z,16.61
2023-05-02T10:58:27.803Z,16.63
2023-05-02T10:59:48.976Z,16.64
2023-05-02T11:01:09.115Z,16.66
2023-05-02T11:02:30.182Z,16.67
2023-05-02T11:03:50.963Z,16.68
2023-05-02T11:05:11.310Z,16.69
2023-05-02T11:06:32.731Z,16.71
2023-05-02T11:07:53.371Z,16.73
2023-05-02T11:09:14.317Z,16.77
2023-05-02T11:10:34.553Z,16.80
2023-05-02T11:11:55.753Z,16.84
2023-05-02T11:13:15.794Z,16.86
2023-05-02T11:14:36.333Z,16.88
2023-05-02T11:15:56.567Z,16.89
2023-05-02T11:17:16.798Z,16.91
2023-05-02T11:18:37.214Z,16.93
2023-05-02T11:19:57.332Z,16.97
2023-05-02T11:21:17.506Z,17.00
2023-05-02T11:22:37.865Z,17.00
2023-05-02T11:23:58.376Z,17.00
2023-05-02T11:25:30.993Z,16.99
2023-05-02T11:26:51.859Z,16.99
2023-05-02T11:28:12.189Z,16.99
2023-05-02T11:29:32.295Z,17.00
2023-05-02T11:30:56.123Z,17.02
2023-05-02T11:32:16.847Z,17.02
2023-05-02T11:33:37.720Z,17.02
2023-05-02T11:34:58.246Z,17.02
2023-05-02T11:36:18.677Z,17.02
2023-05-02T11:37:39.049Z,17.01
2023-05-02T11:38:58.973Z,17.01
2023-05-02T11:40:22.065Z,17.02
2023-05-02T11:41:42.171Z,17.03
2023-05-02T11:43:02.328Z,17.05
2023-05-02T11:44:22.398Z,17.07
2023-05-02T11:45:43.015Z,17.10
2023-05-02T11:47:03.857Z,17.13
2023-05-02T11:48:27.070Z,17.16
2023-05-02T11:49:47.392Z,17.19
2023-05-02T11:51:07.782Z,17.22
2023-05-02T11:52:30.592Z,17.23
2023-05-02T11:53:52.223Z,17.23
2023-05-02T11:55:12.409Z,17.24
2023-05-02T11:56:32.376Z,17.24
2023-05-02T11:57:52.822Z,17.22
2023-05-02T11:59:12.841Z,17.21
2023-05-02T12:00:33.007Z,17.19
2023-05-02T12:01:55.182Z,17.17
2023-05-02T12:03:14.973Z,17.15
2023-05-02T12:04:35.495Z,17.11
2023-05-02T12:06:09.150Z,17.09
2023-05-02T12:07:32.277Z,17.06
2023-05-02T12:08:54.849Z,17.03
2023-05-02T12:10:17.179Z,17.01
2023-05-02T12:11:38.191Z,17.00
2023-05-02T12:12:58.269Z,16.98
2023-05-02T12:14:19.654Z,16.97
2023-05-02T12:15:40.370Z,16.94
2023-05-02T12:17:00.870Z,16.91
2023-05-02T12:18:22.709Z,16.91
2023-05-02T12:19:42.921Z,16.87
2023-05-02T12:21:02.933Z,16.85
2023-05-02T12:22:22.699Z,16.81
2023-05-02T12:23:44.111Z,16.78
2023-05-02T12:25:06.735Z,16.75
2023-05-02T12:26:31.934Z,16.73
2023-05-02T12:27:52.712Z,16.71
2023-05-02T12:29:12.855Z,16.70
2023-05-02T12:30:35.243Z,16.70
2023-05-02T12:32:07.706Z,16.70
2023-05-02T12:33:27.823Z,16.71
2023-05-02T12:34:48.889Z,16.70
2023-05-02T12:36:09.629Z,16.70
2023-05-02T12:37:31.989Z,16.68
2023-05-02T12:38:54.560Z,16.66
2023-05-02T12:40:17.562Z,16.65
2023-05-02T12:41:45.298Z,16.63
2023-05-02T12:43:07.733Z,16.61
2023-05-02T12:44:27.658Z,16.61
2023-05-02T12:45:49.154Z,16.61
2023-05-02T12:47:09.575Z,16.62
2023-05-02T12:48:30.096Z,16.61
2023-05-02T12:49:51.325Z,16.60
2023-05-02T12:51:12.158Z,16.58
2023-05-02T12:52:32.232Z,16.58
2023-05-02T12:53:52.776Z,16.59
2023-05-02T12:55:13.045Z,16.60
2023-05-02T12:56:33.984Z,16.60
2023-05-02T12:57:54.704Z,16.60
2023-05-02T12:59:14.888Z,16.61
2023-05-02T13:00:34.872Z,16.62
2023-05-02T13:01:55.585Z,16.62
2023-05-02T13:03:16.324Z,16.63
2023-05-02T13:04:42.089Z,16.63
2023-05-02T13:06:02.672Z,16.62
2023-05-02T13:07:22.571Z,16.63
2023-05-02T13:08:42.886Z,16.63
2023-05-02T13:10:05.701Z,16.63
2023-05-02T13:11:25.567Z,16.64
2023-05-02T13:12:47.404Z,16.64
2023-05-02T13:14:07.306Z,16.66
2023-05-02T13:15:27.037Z,16.68
2023-05-02T13:16:47.446Z,16.70
2023-05-02T13:18:10.109Z,16.72
2023-05-02T13:19:35.945Z,16.75
2023-05-02T13:20:58.246Z,16.78
2023-05-02T13:22:20.791Z,16.82
2023-05-02T13:23:43.390Z,16.86
2023-05-02T13:25:06.768Z,16.91
2023-05-02T13:26:26.571Z,16.94
2023-05-02T13:27:50.177Z,16.97
2023-05-02T13:29:12.381Z,17.02
2023-05-02T13:30:32.502Z,17.06
2023-05-02T13:31:53.266Z,17.09
2023-05-02T13:33:13.397Z,17.12
2023-05-02T13:34:35.929Z,17.15
2023-05-02T13:35:56.828Z,17.16
2023-05-02T13:37:19.274Z,17.19
2023-05-02T13:38:39.885Z,17.20
2023-05-02T13:40:00.862Z,17.22
2023-05-02T13:41:21.330Z,17.24
2023-05-02T13:42:41.981Z,17.25
2023-05-02T13:44:05.009Z,17.25
2023-05-02T13:45:25.257Z,17.25
2023-05-02T13:46:46.446Z,17.25
2023-05-02T13:48:06.785Z,17.27
2023-05-02T13:49:27.332Z,17.28
2023-05-02T13:50:48.157Z,17.31
2023-05-02T13:52:08.075Z,17.33
2023-05-02T13:53:28.090Z,17.37
2023-05-02T13:54:49.035Z,17.43
2023-05-02T13:56:09.396Z,17.48
2023-05-02T13:57:31.889Z,17.53
2023-05-02T13:59:00.054Z,17.60
2023-05-02T14:00:20.434Z,17.68
2023-05-02T14:01:40.970Z,17.76
2023-05-02T14:03:10.672Z,17.85
2023-05-02T14:04:31.076Z,17.93
2023-05-02T14:05:54.093Z,18.03
2023-05-02T14:07:21.762Z,18.12
2023-05-02T14:08:44.660Z,18.23
2023-05-02T14:10:04.969Z,18.32
2023-05-02T14:11:25.220Z,18.39
2023-05-02T14:12:45.851Z,18.43
2023-05-02T14:14:09.077Z,18.47
2023-05-02T14:15:31.651Z,18.53
2023-05-02T14:17:07.163Z,18.62
2023-05-02T14:18:27.041Z,18.73
2023-05-02T14:19:48.437Z,18.84
2023-05-02T14:21:08.921Z,18.97
2023-05-02T14:22:28.984Z,19.09
2023-05-02T14:23:49.603Z,19.21
2023-05-02T14:25:13.418Z,19.30
2023-05-02T14:26:35.565Z,19.38
2023-05-02T14:27:56.477Z,19.46
2023-05-02T14:29:17.785Z,19.54
2023-05-02T14:30:37.885Z,19.59
2023-05-02T14:32:07.733Z,19.66
2023-05-02T14:33:27.840Z,19.71
2023-05-02T14:34:48.636Z,19.77
2023-05-02T14:36:08.809Z,19.81
2023-05-02T14:37:28.663Z,19.85
2023-05-02T14:38:49.344Z,19.88
2023-05-02T14:40:10.053Z,19.91
2023-05-02T14:41:29.910Z,19.96
2023-05-02T14:42:51.216Z,20.02
2023-05-02T14:44:11.161Z,20.08
2023-05-02T14:45:31.080Z,20.15
2023-05-02T14:46:51.695Z,20.22
2023-05-02T14:48:13.427Z,20.25
2023-05-02T14:49:33.330Z,20.29
2023-05-02T14:50:54.077Z,20.33
2023-05-02T14:52:13.772Z,20.36
2023-05-02T14:53:33.805Z,20.40
2023-05-02T14:54:54.489Z,20.42
2023-05-02T14:56:16.458Z,20.48
2023-05-02T14:57:36.983Z,20.55
2023-05-02T14:59:00.025Z,20.60
2023-05-02T15:00:21.142Z,20.64
2023-05-02T15:01:41.465Z,20.65
2023-05-02T15:03:02.534Z,20.67
2023-05-02T15:04:26.000Z,20.68
2023-05-02T15:05:46.772Z,20.68
2023-05-02T15:07:09.521Z,20.70
2023-05-02T15:08:34.528Z,20.71
2023-05-02T15:10:17.932Z,20.73
2023-05-02T15:11:46.281Z,20.74
2023-05-02T15:13:07.954Z,20.75
2023-05-02T15:14:27.658Z,20.76
2023-05-02T15:15:53.105Z,20.77
2023-05-02T15:17:13.369Z,20.78
2023-05-02T15:18:33.700Z,20.80
2023-05-02T15:19:57.001Z,20.82
2023-05-02T15:21:19.162Z,20.84
2023-05-02T15:22:39.760Z,20.84
2023-05-02T15:24:00.110Z,20.84
2023-05-02T15:25:20.232Z,20.83
2023-05-02T15:26:40.652Z,20.83
2023-05-02T15:28:02.437Z,20.82
2023-05-02T15:29:22.234Z,20.83
2023-05-02T15:30:42.633Z,20.87
2023-05-02T15:32:02.568Z,20.92
2023-05-02T15:33:23.117Z,20.95
2023-05-02T15:34:43.887Z,20.98
2023-05-02T15:36:04.181Z,21.01
2023-05-02T15:37:23.929Z,21.03
2023-05-02T15:38:44.899Z,21.03
2023-05-02T15:40:06.320Z,20.99
2023-05-02T15:41:26.829Z,20.92
2023-05-02T15:42:51.887Z,20.84
2023-05-02T15:44:12.449Z,20.77
2023-05-02T15:45:33.358Z,20.71
2023-05-02T15:46:55.229Z,20.65
2023-05-02T15:48:15.486Z,20.59
2023-05-02T15:49:35.833Z,20.52
2023-05-02T15:50:56.982Z,20.45
2023-05-02T15:52:17.230Z,20.37
2023-05-02T15:53:41.740Z,20.29
2023-05-02T15:55:02.699Z,20.19
2023-05-02T15:56:23.006Z,20.11
2023-05-02T15:57:43.568Z,20.06
2023-05-02T15:59:03.879Z,19.98
2023-05-02T16:00:24.157Z,19.88
2023-05-02T16:01:46.892Z,19.78
2023-05-02T16:03:09.429Z,19.69
2023-05-02T16:04:31.336Z,19.61
2023-05-02T16:05:52.553Z,19.53
2023-05-02T16:07:12.447Z,19.46
2023-05-02T16:08:35.317Z,19.40
2023-05-02T16:09:56.084Z,19.35
2023-05-02T16:11:16.133Z,19.30
2023-05-02T16:12:36.434Z,19.23
2023-05-02T16:14:00.028Z,19.15
2023-05-02T16:15:20.420Z,19.07
2023-05-02T16:16:40.934Z,18.98
2023-05-02T16:18:01.428Z,18.90
2023-05-02T16:19:23.761Z,18.81
2023-05-02T16:20:44.368Z,18.74
2023-05-02T16:22:08.360Z,18.66
2023-05-02T16:23:28.430Z,18.58
2023-05-02T16:24:49.419Z,18.49
2023-05-02T16:26:23.405Z,18.42
2023-05-02T16:27:46.296Z,18.33
2023-05-02T16:29:06.857Z,18.27
2023-05-02T16:30:27.481Z,18.21
2023-05-02T16:31:48.472Z,18.15
2023-05-02T16:33:08.687Z,18.08
2023-05-02T16:34:28.626Z,18.02
2023-05-02T16:35:49.334Z,17.95
2023-05-02T16:37:09.245Z,17.89
2023-05-02T16:38:29.227Z,17.81
2023-05-02T16:39:49.438Z,17.74
2023-05-02T16:41:12.409Z,17.65
2023-05-02T16:42:32.629Z,17.57
2023-05-02T16:43:53.737Z,17.47
2023-05-02T16:45:14.566Z,17.37
2023-05-02T16:46:34.808Z,17.26
2023-05-02T16:47:56.277Z,17.13
2023-05-02T16:49:16.807Z,17.02
2023-05-02T16:50:36.574Z,16.90
2023-05-02T16:52:00.032Z,16.78
2023-05-02T16:53:20.506Z,16.67
2023-05-02T16:54:40.705Z,16.56
2023-05-02T16:56:01.633Z,16.45
2023-05-02T16:57:23.933Z,16.34
2023-05-02T16:58:44.690Z,16.23
2023-05-02T17:00:07.832Z,16.13
2023-05-02T17:01:30.436Z,16.03
2023-05-02T17:03:05.248Z,15.91
2023-05-02T17:04:37.233Z,15.79
2023-05-02T17:05:58.328Z,15.68
2023-05-02T17:07:18.207Z,15.59
2023-05-02T17:08:38.629Z,15.50
2023-05-02T17:09:58.952Z,15.42
2023-05-02T17:11:21.069Z,15.35
2023-05-02T17:12:42.984Z,15.29
2023-05-02T17:14:03.631Z,15.25
2023-05-02T17:15:23.568Z,15.21
2023-05-02T17:16:51.526Z,15.17
2023-05-02T17:18:13.880Z,15.13
2023-05-02T17:19:36.549Z,15.09
2023-05-02T17:20:57.251Z,15.06
2023-05-02T17:22:18.615Z,15.03
2023-05-02T17:23:49.076Z,15.00
2023-05-02T17:25:10.026Z,14.97
2023-05-02T17:26:32.581Z,14.94
2023-05-02T17:27:55.906Z,14.90
2023-05-02T17:29:16.073Z,14.87
2023-05-02T17:30:36.707Z,14.85
2023-05-02T17:31:59.869Z,14.82
2023-05-02T17:33:19.884Z,14.79
2023-05-02T17:34:42.825Z,14.77
2023-05-02T17:36:03.493Z,14.73
2023-05-02T17:37:23.408Z,14.70
2023-05-02T17:38:44.457Z,14.68
2023-05-02T17:40:05.157Z,14.65
2023-05-02T17:41:26.143Z,14.89
2023-05-02T17:42:46.951Z,15.81
2023-05-02T17:44:09.586Z,16.94
2023-05-02T17:45:29.910Z,17.59
2023-05-02T17:46:58.031Z,17.54
2023-05-02T17:48:18.215Z,17.21
